Time;durP1;ratioP1;P1;durP2;ratioP2;P2;SDS_P1;SDS_P2;PMS_P1;PMS_P2;Temp;Humidity;BMP_temperature;BMP_pressure;BME280_temperature;BME280_humidity;BME280_pressure;Samples;Min_cycle;Max_cycle;Signal;HPM_P1;HPM_P2
2023/05/05 00:00:10;;;;;;;9.95;3.65;;;;;;;12.35;76.88;101789.88;4804636;29;20040;-86
2023/05/05 00:02:36;;;;;;;7.47;4.22;;;;;;;12.44;76.60;101794.72;4774881;29;20520;-86
2023/05/05 00:05:02;;;;;;;8.55;3.70;;;;;;;12.43;77.05;101795.63;4805440;29;20031;-85
2023/05/05 00:07:27;;;;;;;7.10;4.28;;;;;;;12.39;77.20;101786.28;4805267;29;20037;-86
2023/05/05 00:09:53;;;;;;;4.95;3.88;;;;;;;12.45;77.07;101791.22;4804523;29;20031;-85
2023/05/05 00:12:18;;;;;;;5.47;3.25;;;;;;;12.42;77.34;101790.50;4804165;29;20035;-87
2023/05/05 00:14:43;;;;;;;6.43;3.72;;;;;;;12.37;77.88;101795.84;4774523;29;20068;-86
2023/05/05 00:17:09;;;;;;;5.82;3.30;;;;;;;12.24;78.00;101760.91;4774191;29;20038;-86
2023/05/05 00:19:34;;;;;;;5.53;3.33;;;;;;;12.41;78.28;101788.81;4804088;29;20039;-85
2023/05/05 00:22:00;;;;;;;7.38;3.85;;;;;;;12.34;78.05;101764.81;4789276;29;20091;-86
2023/05/05 00:24:25;;;;;;;7.15;3.50;;;;;;;12.43;78.04;101787.00;4789172;29;20109;-87
2023/05/05 00:26:51;;;;;;;4.88;3.13;;;;;;;12.42;77.78;101786.16;4803943;29;20038;-87
2023/05/05 00:29:16;;;;;;;4.80;2.70;;;;;;;12.37;78.09;101775.06;4774224;29;20026;-85
2023/05/05 00:31:42;;;;;;;5.88;3.20;;;;;;;12.40;78.19;101781.94;4804149;29;20027;-86
2023/05/05 00:34:07;;;;;;;4.18;3.08;;;;;;;12.50;78.12;101786.72;4788903;29;20043;-86
2023/05/05 00:36:33;;;;;;;5.82;2.85;;;;;;;12.39;78.21;101775.03;4804074;29;20039;-86
2023/05/05 00:38:58;;;;;;;9.23;3.80;;;;;;;12.41;78.28;101781.03;4789036;29;20035;-85
2023/05/05 00:41:24;;;;;;;4.97;2.92;;;;;;;12.56;78.14;101788.19;4803817;29;20051;-86
2023/05/05 00:43:49;;;;;;;4.88;3.10;;;;;;;12.62;77.97;101777.59;4803620;29;20031;-85
2023/05/05 00:46:22;;;;;;;3.45;2.67;;;;;;;12.63;77.83;101790.50;4788783;29;20080;-85
2023/05/05 00:48:47;;;;;;;4.10;2.67;;;;;;;12.41;78.37;101768.03;4803651;29;20125;-85
2023/05/05 00:51:14;;;;;;;5.20;3.08;;;;;;;12.44;78.73;101775.69;4788542;29;20035;-85
2023/05/05 00:53:41;;;;;;;4.85;3.22;;;;;;;12.48;78.79;101785.88;4788809;29;20512;-86
2023/05/05 00:56:07;;;;;;;4.75;3.10;;;;;;;12.44;78.54;101762.72;4788881;29;20552;-86
2023/05/05 00:58:32;;;;;;;4.00;3.25;;;;;;;12.40;78.60;101750.78;4788377;29;20035;-86
2023/05/05 01:00:58;;;;;;;4.53;3.45;;;;;;;12.56;77.88;101778.66;4788585;29;20038;-86
2023/05/05 01:03:23;;;;;;;5.88;3.60;;;;;;;12.52;77.93;101771.06;4803347;29;20034;-87
2023/05/05 01:05:54;;;;;;;6.55;4.03;;;;;;;12.35;78.00;101738.81;4788741;29;20419;-86
2023/05/05 01:08:32;;;;;;;4.43;3.20;;;;;;;12.49;78.21;101776.38;4804636;29;20039;-86
2023/05/05 01:11:02;;;;;;;5.07;3.45;;;;;;;12.58;78.38;101786.38;4788770;29;20117;-85
2023/05/05 01:13:34;;;;;;;8.60;4.55;;;;;;;12.61;78.28;101786.28;4788490;29;20062;-87
2023/05/05 01:16:04;;;;;;;5.10;3.70;;;;;;;12.46;79.21;101763.50;4804272;29;20073;-86
2023/05/05 01:18:35;;;;;;;3.88;2.88;;;;;;;12.68;79.20;101782.53;4788098;29;20324;-86
2023/05/05 01:21:02;;;;;;;3.90;2.83;;;;;;;12.70;79.30;101779.91;4804161;29;20038;-86
2023/05/05 01:23:55;;;;;;;4.03;2.95;;;;;;;12.68;79.60;101781.69;4803205;29;20073;-87
2023/05/05 01:26:31;;;;;;;4.20;3.17;;;;;;;12.69;79.56;101773.84;4804634;29;20130;-86
2023/05/05 01:29:22;;;;;;;6.78;3.67;;;;;;;12.44;79.33;101736.78;4788821;29;20034;-86
2023/05/05 01:31:55;;;;;;;7.15;3.58;;;;;;;12.66;79.52;101767.91;4799172;29;20042;-86
2023/05/05 01:34:31;;;;;;;4.55;3.20;;;;;;;12.59;79.42;101759.56;4788147;29;21270;-86
2023/05/05 01:37:26;;;;;;;4.97;3.33;;;;;;;12.73;79.19;101775.41;4788437;29;20087;-86
2023/05/05 01:39:54;;;;;;;4.53;3.35;;;;;;;12.59;79.00;101754.34;4802739;29;20073;-86
2023/05/05 01:42:20;;;;;;;4.70;3.45;;;;;;;12.43;79.70;101732.50;4773179;29;20126;-86
2023/05/05 01:44:45;;;;;;;4.03;3.15;;;;;;;12.54;79.54;101754.53;4802382;29;20417;-85
2023/05/05 01:47:12;;;;;;;3.97;2.97;;;;;;;12.60;79.49;101761.22;4772907;29;20035;-86
2023/05/05 01:49:37;;;;;;;5.10;2.88;;;;;;;12.36;79.25;101729.28;4802560;29;20560;-86
2023/05/05 01:52:03;;;;;;;9.38;3.10;;;;;;;12.43;79.47;101737.69;4787847;29;20090;-86
2023/05/05 01:54:30;;;;;;;6.22;3.63;;;;;;;12.33;80.40;101737.19;4802797;29;20042;-86
2023/05/05 01:56:56;;;;;;;5.50;3.67;;;;;;;12.21;80.38;101714.31;4802544;29;20030;-85
2023/05/05 01:59:21;;;;;;;4.88;3.17;;;;;;;12.43;80.41;101756.69;4787692;29;20355;-85
2023/05/05 02:01:47;;;;;;;5.28;3.38;;;;;;;12.33;80.74;101744.97;4772500;29;20072;-86
2023/05/05 02:04:13;;;;;;;5.30;3.42;;;;;;;12.08;80.77;101716.50;4787777;29;20038;-86
2023/05/05 02:06:38;;;;;;;4.00;2.97;;;;;;;12.32;80.89;101754.50;4787973;29;20042;-86
2023/05/05 02:09:04;;;;;;;5.90;3.90;;;;;;;12.12;80.72;101720.69;4787419;29;20031;-86
2023/05/05 02:11:29;;;;;;;4.57;3.60;;;;;;;12.13;80.99;101724.13;4787555;29;20047;-86
2023/05/05 02:13:55;;;;;;;4.57;3.90;;;;;;;12.30;81.26;101750.28;4802301;29;20519;-86
2023/05/05 02:16:21;;;;;;;5.88;3.92;;;;;;;12.25;81.46;101747.84;4787486;29;20046;-85
2023/05/05 02:18:46;;;;;;;4.65;3.47;;;;;;;12.24;81.20;101751.34;4772604;29;20027;-85
2023/05/05 02:21:13;;;;;;;3.58;3.15;;;;;;;11.97;81.61;101705.69;4772586;29;20035;-86
2023/05/05 02:23:39;;;;;;;4.85;3.10;;;;;;;12.17;81.55;101744.69;4802777;29;20038;-86
2023/05/05 02:26:08;;;;;;;4.78;3.63;;;;;;;11.98;81.81;101713.41;4802567;29;20039;-85
2023/05/05 02:28:44;;;;;;;4.95;3.47;;;;;;;11.80;81.75;101688.19;4787947;29;20035;-85
2023/05/05 02:31:09;;;;;;;4.68;3.15;;;;;;;12.03;82.37;101723.63;4806196;29;20072;-86
2023/05/05 02:33:35;;;;;;;5.57;3.97;;;;;;;11.93;82.22;101702.38;4776071;29;20034;-85
2023/05/05 02:36:17;;;;;;;4.72;2.67;;;;;;;11.87;82.66;101719.91;4776106;29;20035;-86
2023/05/05 02:38:42;;;;;;;3.37;2.67;;;;;;;11.83;82.56;101702.78;4776922;29;20497;-87
2023/05/05 02:41:11;;;;;;;5.80;2.88;;;;;;;11.91;82.97;101716.31;4775839;29;20303;-86
2023/05/05 02:43:36;;;;;;;6.07;3.28;;;;;;;11.80;82.18;101723.63;4807219;29;20492;-86
2023/05/05 02:46:02;;;;;;;3.50;2.80;;;;;;;11.68;82.37;101717.94;4805954;29;20505;-86
2023/05/05 02:48:28;;;;;;;4.50;3.17;;;;;;;11.60;83.29;101707.03;4775914;29;20035;-86
2023/05/05 02:50:54;;;;;;;5.00;3.20;;;;;;;11.58;83.55;101701.03;4790863;29;20493;-87
2023/05/05 02:53:19;;;;;;;3.20;2.13;;;;;;;11.29;83.49;101654.59;4790676;29;20091;-84
2023/05/05 02:55:50;;;;;;;4.63;2.92;;;;;;;11.63;83.85;101704.34;4775829;29;20041;-83
2023/05/05 02:58:20;;;;;;;5.57;3.55;;;;;;;11.60;83.30;101699.25;4775673;29;20039;-84
2023/05/05 03:00:53;;;;;;;6.30;3.22;;;;;;;11.61;83.54;101719.09;4790566;29;20035;-84
2023/05/05 03:03:41;;;;;;;12.32;3.67;;;;;;;11.65;83.50;101710.28;4775986;29;20038;-84
2023/05/05 03:06:15;;;;;;;4.78;3.28;;;;;;;11.56;83.51;101695.06;4805514;29;20030;-84
2023/05/05 03:08:53;;;;;;;6.53;4.38;;;;;;;11.58;83.74;101698.44;4790477;29;20031;-84
2023/05/05 03:11:35;;;;;;;4.60;2.95;;;;;;;11.44;83.96;101677.38;4806728;29;20506;-85
2023/05/05 03:14:07;;;;;;;4.53;3.53;;;;;;;11.57;84.09;101706.28;4805444;29;20041;-84
2023/05/05 03:16:36;;;;;;;6.63;3.95;;;;;;;11.64;83.48;101731.94;4790908;29;20039;-84
2023/05/05 03:19:02;;;;;;;5.47;3.83;;;;;;;11.59;83.54;101720.88;4775526;29;20052;-86
2023/05/05 03:21:28;;;;;;;4.50;3.00;;;;;;;11.45;83.08;101707.56;4775599;29;20505;-84
2023/05/05 03:23:53;;;;;;;6.53;3.75;;;;;;;11.61;82.86;101724.28;4759388;29;20055;-84
2023/05/05 03:26:19;;;;;;;4.53;3.28;;;;;;;11.60;82.80;101722.59;4789278;29;20038;-83
2023/05/05 03:28:44;;;;;;;5.07;3.53;;;;;;;11.58;82.68;101714.00;4790042;29;20043;-83
2023/05/05 03:31:10;;;;;;;5.03;3.30;;;;;;;11.65;82.87;101719.81;4775026;29;20034;-86
2023/05/05 03:33:35;;;;;;;12.35;4.07;;;;;;;11.72;82.93;101729.91;4774538;29;20488;-85
2023/05/05 03:36:01;;;;;;;5.18;3.83;;;;;;;11.61;82.76;101719.09;4774409;29;20035;-85
2023/05/05 03:38:26;;;;;;;5.78;3.42;;;;;;;11.66;83.02;101719.75;4774582;29;20096;-85
2023/05/05 03:40:52;;;;;;;6.97;4.22;;;;;;;11.51;82.88;101702.19;4804135;29;20062;-85
2023/05/05 03:43:18;;;;;;;7.90;3.78;;;;;;;11.57;82.56;101717.50;4774741;29;20034;-85
2023/05/05 03:45:43;;;;;;;10.15;4.22;;;;;;;11.56;82.60;101725.34;4790098;29;20175;-85
2023/05/05 03:48:09;;;;;;;4.65;3.28;;;;;;;11.53;82.80;101731.47;4805918;29;20031;-85
2023/05/05 03:50:35;;;;;;;5.25;3.65;;;;;;;11.53;83.23;101739.25;4789337;29;20114;-84
2023/05/05 03:53:00;;;;;;;6.88;4.10;;;;;;;11.56;83.74;101739.13;4789543;29;20038;-85
2023/05/05 03:55:26;;;;;;;14.60;4.43;;;;;;;11.56;83.26;101735.69;4774338;29;20035;-85
2023/05/05 03:57:51;;;;;;;9.70;4.55;;;;;;;11.49;83.47;101729.88;4788570;29;20485;-85
2023/05/05 04:00:17;;;;;;;7.60;4.40;;;;;;;11.54;83.77;101733.16;4802236;29;20507;-85
2023/05/05 04:02:42;;;;;;;6.70;4.90;;;;;;;11.57;83.59;101740.81;4807258;29;20520;-85
2023/05/05 04:05:08;;;;;;;7.72;4.25;;;;;;;11.61;83.73;101742.44;4822383;29;20035;-85
2023/05/05 04:07:33;;;;;;;6.07;4.60;;;;;;;11.65;83.62;101748.34;4822193;29;20030;-85
2023/05/05 04:09:59;;;;;;;6.53;4.40;;;;;;;11.52;83.92;101722.00;4821824;29;20516;-87
2023/05/05 04:12:24;;;;;;;7.10;4.45;;;;;;;11.69;84.04;101742.13;4807467;29;20510;-86
2023/05/05 04:14:50;;;;;;;7.72;4.88;;;;;;;11.65;83.88;101746.59;4822339;29;20033;-85
2023/05/05 04:17:15;;;;;;;6.43;4.50;;;;;;;11.43;83.71;101706.78;4779730;29;20039;-87
2023/05/05 04:19:41;;;;;;;6.22;4.30;;;;;;;11.66;83.98;101747.44;4805824;29;20037;-90
2023/05/05 04:22:06;;;;;;;5.38;4.40;;;;;;;11.74;83.92;101761.81;4804278;29;20039;-94
2023/05/05 04:24:32;;;;;;;7.15;4.90;;;;;;;11.70;82.87;101760.25;4813497;29;20027;-91
2023/05/05 04:26:57;;;;;;;6.35;4.18;;;;;;;11.73;83.12;101756.69;4802650;29;20046;-93
2023/05/05 04:29:23;;;;;;;6.50;3.85;;;;;;;11.66;82.56;101750.03;4821949;29;20027;-87
2023/05/05 04:31:49;;;;;;;6.35;4.05;;;;;;;11.73;82.53;101754.94;4819564;29;20083;-95
2023/05/05 04:34:14;;;;;;;5.90;4.07;;;;;;;11.65;82.18;101741.41;4790566;29;20043;-94
2023/05/05 04:36:40;;;;;;;9.13;3.65;;;;;;;11.87;81.80;101761.41;4805860;29;20050;-91
2023/05/05 04:39:07;;;;;;;7.55;4.90;;;;;;;11.89;80.61;101757.00;4803178;29;20039;-90
2023/05/05 04:41:33;;;;;;;8.20;5.28;;;;;;;11.74;80.46;101735.03;4802336;29;20051;-93
2023/05/05 04:43:58;;;;;;;5.53;4.07;;;;;;;11.76;80.95;101744.44;4803143;29;20079;-81
2023/05/05 04:46:24;;;;;;;11.70;4.78;;;;;;;11.65;80.92;101731.03;4806369;29;20039;-92
2023/05/05 04:48:51;;;;;;;7.22;4.72;;;;;;;11.91;80.77;101752.63;4805254;29;20058;-86
2023/05/05 04:51:16;;;;;;;6.93;4.75;;;;;;;11.90;81.09;101751.78;4804274;29;20038;-85
2023/05/05 04:53:42;;;;;;;11.02;6.22;;;;;;;12.00;80.41;101762.66;4794740;29;20071;-84
2023/05/05 04:56:07;;;;;;;15.15;7.18;;;;;;;11.96;80.46;101763.66;4805645;29;20096;-85
2023/05/05 04:58:33;;;;;;;13.90;6.47;;;;;;;12.05;80.28;101778.88;4803936;29;20038;-85
2023/05/05 05:00:58;;;;;;;13.85;7.18;;;;;;;11.97;80.40;101762.75;4811512;29;20099;-85
2023/05/05 05:03:24;;;;;;;13.38;7.80;;;;;;;12.08;80.49;101776.16;4785593;29;20094;-85
2023/05/05 05:05:49;;;;;;;14.93;6.70;;;;;;;12.20;79.93;101774.91;4807065;29;20039;-95
2023/05/05 05:08:15;;;;;;;13.40;6.75;;;;;;;12.16;80.36;101773.28;4788652;29;20101;-87
2023/05/05 05:10:41;;;;;;;9.30;6.00;;;;;;;12.14;79.97;101768.19;4784769;29;20027;-90
2023/05/05 05:13:14;;;;;;;8.73;5.60;;;;;;;12.23;79.75;101780.81;5086380;28;20389;-90
2023/05/05 05:15:40;;;;;;;5.32;4.45;;;;;;;12.30;79.68;101782.28;5052734;28;20024;-81
2023/05/05 05:18:06;;;;;;;13.30;6.88;;;;;;;12.36;79.50;101786.38;5046952;28;20430;-93
2023/05/05 05:20:31;;;;;;;7.40;5.32;;;;;;;12.44;79.27;101784.34;5059961;28;20024;-87
2023/05/05 05:22:57;;;;;;;11.32;5.95;;;;;;;12.45;78.72;101780.81;5036025;28;20062;-93
2023/05/05 05:25:23;;;;;;;23.55;8.27;;;;;;;12.41;78.51;101768.03;5072410;27;20055;-87
2023/05/05 05:27:48;;;;;;;17.75;10.38;;;;;;;12.46;78.71;101763.50;5042512;28;21097;-87
2023/05/05 05:30:14;;;;;;;14.52;6.88;;;;;;;12.61;78.20;101770.72;5038714;28;20033;-86
2023/05/05 05:32:40;;;;;;;10.43;6.40;;;;;;;12.82;77.82;101790.63;5028798;28;20068;-91
2023/05/05 05:35:05;;;;;;;12.32;5.43;;;;;;;12.88;76.85;101793.00;5044658;28;20473;-86
2023/05/05 05:37:31;;;;;;;10.88;6.72;;;;;;;12.98;77.12;101787.41;5034316;28;20033;-87
2023/05/05 05:39:56;;;;;;;12.25;6.97;;;;;;;12.95;76.14;101765.00;5030112;28;20026;-86
2023/05/05 05:42:22;;;;;;;14.02;9.05;;;;;;;13.04;75.75;101771.59;5026079;28;20041;-85
2023/05/05 05:44:47;;;;;;;16.70;8.55;;;;;;;13.09;75.48;101780.03;5041548;28;20037;-84
2023/05/05 05:47:13;;;;;;;12.05;7.25;;;;;;;13.17;75.66;101780.53;5041403;28;20037;-88
2023/05/05 05:49:38;;;;;;;16.85;8.65;;;;;;;13.26;75.54;101775.00;5045539;28;20037;-85
2023/05/05 05:52:04;;;;;;;14.70;8.98;;;;;;;13.31;75.46;101767.88;5048030;28;20037;-90
2023/05/05 05:54:31;;;;;;;14.23;8.88;;;;;;;13.46;74.60;101755.97;5045327;28;20033;-85
2023/05/05 05:56:56;;;;;;;15.32;8.43;;;;;;;13.66;73.88;101768.94;5062311;28;20094;-90
2023/05/05 05:59:22;;;;;;;11.43;6.72;;;;;;;13.65;72.47;101764.66;5033527;28;20489;-84
2023/05/05 06:01:47;;;;;;;22.05;7.25;;;;;;;13.78;72.26;101772.78;5051641;28;20526;-86
2023/05/05 06:04:13;;;;;;;23.48;9.57;;;;;;;13.80;72.75;101763.16;5045829;28;20044;-87
2023/05/05 06:06:39;;;;;;;14.35;7.75;;;;;;;14.02;71.63;101769.09;5046236;28;20029;-88
2023/05/05 06:09:04;;;;;;;15.57;7.82;;;;;;;14.00;71.63;101759.66;5014831;28;20075;-92
2023/05/05 06:11:31;;;;;;;18.05;8.70;;;;;;;14.13;71.57;101765.16;5026653;28;20052;-87
2023/05/05 06:13:57;;;;;;;11.73;6.70;;;;;;;14.14;70.75;101765.06;5049097;28;20040;-88
2023/05/05 06:16:22;;;;;;;13.95;6.85;;;;;;;14.33;70.36;101772.88;5047887;28;20104;-88
2023/05/05 06:18:48;;;;;;;21.08;6.55;;;;;;;14.32;69.29;101779.00;5065326;28;20436;-89
2023/05/05 06:21:13;;;;;;;9.52;6.43;;;;;;;14.33;69.26;101772.88;5064764;28;20418;-85
2023/05/05 06:23:39;;;;;;;25.15;8.13;;;;;;;14.44;69.67;101774.97;5019435;28;20083;-92
2023/05/05 06:26:04;;;;;;;16.48;7.82;;;;;;;14.54;70.10;101777.13;5022528;28;20037;-86
2023/05/05 06:28:30;;;;;;;21.38;8.07;;;;;;;14.51;68.61;101756.44;5042652;28;20422;-89
2023/05/05 06:30:55;;;;;;;12.23;7.45;;;;;;;14.56;67.83;101780.50;5048118;28;20083;-91
2023/05/05 06:33:21;;;;;;;9.15;5.53;;;;;;;14.42;68.12;101737.78;5032584;28;20048;-88
2023/05/05 06:38:30;;;;;;;11.77;5.63;;;;;;;14.96;67.89;101769.94;5029775;28;20041;-87
2023/05/05 06:40:57;;;;;;;8.10;5.07;;;;;;;15.09;67.72;101761.44;5026496;28;20033;-88
2023/05/05 06:43:22;;;;;;;9.15;5.60;;;;;;;15.14;65.70;101762.06;5009715;28;20086;-90
2023/05/05 06:45:48;;;;;;;8.70;4.75;;;;;;;15.38;65.02;101762.56;5022676;28;20079;-88
2023/05/05 06:48:13;;;;;;;8.75;5.10;;;;;;;15.41;65.45;101751.97;5025309;28;20025;-86
2023/05/05 06:50:39;;;;;;;8.93;4.97;;;;;;;15.57;65.12;101772.91;5026166;28;20037;-89
2023/05/05 06:53:04;;;;;;;10.50;5.72;;;;;;;15.68;66.53;101775.81;5034600;28;20032;-92
2023/05/05 06:55:30;;;;;;;8.30;4.85;;;;;;;15.84;64.60;101764.59;5034584;28;20036;-85
2023/05/05 06:57:55;;;;;;;17.88;9.38;;;;;;;15.78;62.94;101760.53;5046529;28;20041;-85
2023/05/05 07:00:21;;;;;;;7.05;4.60;;;;;;;15.95;62.24;101767.47;5042579;28;20032;-85
2023/05/05 07:02:47;;;;;;;8.95;4.65;;;;;;;15.90;61.95;101753.81;5033887;28;20022;-91
2023/05/05 07:05:13;;;;;;;18.38;10.63;;;;;;;15.91;63.16;101725.03;5043891;28;20115;-90
2023/05/05 07:07:48;;;;;;;7.10;4.80;;;;;;;16.34;62.44;101767.09;5027011;28;20018;-89
2023/05/05 07:10:14;;;;;;;8.52;5.57;;;;;;;16.48;61.16;101766.31;5020485;28;20038;-90
2023/05/05 07:12:39;;;;;;;16.02;6.57;;;;;;;16.60;61.56;101763.84;5024881;28;20494;-90
2023/05/05 07:15:05;;;;;;;8.07;4.95;;;;;;;16.71;60.06;101771.13;5057196;28;20029;-82
2023/05/05 07:17:31;;;;;;;7.15;4.57;;;;;;;16.77;60.33;101768.19;5030567;28;20033;-85
2023/05/05 07:19:56;;;;;;;6.68;3.38;;;;;;;16.92;59.57;101761.25;5031551;28;20034;-91
2023/05/05 07:22:21;;;;;;;5.85;3.72;;;;;;;17.00;59.33;101769.47;5030752;28;20034;-89
2023/05/05 07:24:47;;;;;;;7.63;3.97;;;;;;;17.01;59.30;101762.47;5046848;28;20029;-88
2023/05/05 07:27:12;;;;;;;4.70;3.15;;;;;;;17.01;58.61;101759.84;5039294;28;20040;-88
2023/05/05 07:29:38;;;;;;;8.57;4.32;;;;;;;17.05;59.91;101736.06;5008292;28;20029;-87
2023/05/05 07:32:04;;;;;;;4.53;3.22;;;;;;;17.40;61.02;101772.34;5050123;28;20418;-86
2023/05/05 07:34:31;;;;;;;6.72;3.05;;;;;;;17.34;57.41;101736.13;5047070;28;20514;-86
2023/05/05 07:36:57;;;;;;;4.55;3.22;;;;;;;17.42;57.42;101745.19;5049536;28;20099;-87
2023/05/05 07:39:22;;;;;;;5.03;3.10;;;;;;;17.60;57.39;101748.50;5045168;28;20063;-88
2023/05/05 07:41:48;;;;;;;5.88;2.85;;;;;;;17.84;55.57;101761.88;5009179;28;20064;-87
2023/05/05 07:44:13;;;;;;;7.00;3.10;;;;;;;17.58;54.20;101718.94;5016514;28;20026;-90
2023/05/05 07:46:38;;;;;;;4.38;2.85;;;;;;;17.97;54.19;101767.19;5043382;28;20044;-83
2023/05/05 07:49:04;;;;;;;4.03;2.65;;;;;;;17.89;53.79;101749.31;5048333;28;20037;-87
2023/05/05 07:51:30;;;;;;;4.30;2.72;;;;;;;18.12;55.71;101754.94;5025289;28;20029;-85
2023/05/05 07:53:56;;;;;;;3.95;2.40;;;;;;;18.39;53.70;101771.53;5002845;28;20461;-88
2023/05/05 07:56:21;;;;;;;4.60;2.67;;;;;;;18.24;52.43;101743.69;5017062;28;20474;-84
2023/05/05 07:58:47;;;;;;;3.67;2.60;;;;;;;18.48;51.49;101770.91;5050471;28;20059;-87
2023/05/05 08:01:12;;;;;;;13.93;7.57;;;;;;;18.35;54.17;101738.59;5042668;28;20037;-88
2023/05/05 08:03:37;;;;;;;5.53;2.45;;;;;;;18.70;51.90;101753.88;5026955;28;20037;-92
2023/05/05 08:06:08;;;;;;;6.35;3.00;;;;;;;18.90;50.89;101758.66;5014475;28;20040;-85
2023/05/05 08:08:33;;;;;;;4.95;2.47;;;;;;;18.98;49.95;101752.91;5008915;28;20037;-87
2023/05/05 08:11:00;;;;;;;4.22;2.75;;;;;;;19.05;50.27;101759.41;5029165;28;20366;-89
2023/05/05 08:13:26;;;;;;;3.55;2.70;;;;;;;19.05;48.73;101741.03;5023280;28;20045;-88
2023/05/05 08:15:51;;;;;;;4.30;2.95;;;;;;;19.39;49.81;101768.47;5029688;28;20033;-87
2023/05/05 08:18:17;;;;;;;4.22;2.55;;;;;;;19.42;49.57;101760.38;5025058;28;20410;-85
2023/05/05 08:20:43;;;;;;;3.83;2.90;;;;;;;19.38;49.95;101764.19;5021769;28;20041;-85
2023/05/05 08:23:08;;;;;;;3.67;2.55;;;;;;;19.39;46.99;101716.00;5031507;28;20111;-84
2023/05/05 08:25:34;;;;;;;4.53;2.80;;;;;;;19.58;47.48;101750.56;5040527;28;20021;-89
2023/05/05 08:27:59;;;;;;;4.63;2.40;;;;;;;19.61;48.04;101754.75;5036496;28;20044;-86
2023/05/05 08:30:25;;;;;;;3.05;2.00;;;;;;;19.30;48.13;101745.47;5024194;28;20442;-85
2023/05/05 08:32:50;;;;;;;4.47;2.65;;;;;;;19.47;47.80;101745.19;5028515;28;20032;-85
2023/05/05 08:35:15;;;;;;;4.22;2.75;;;;;;;19.62;48.40;101746.75;5029545;28;20033;-88
2023/05/05 08:37:41;;;;;;;2.97;2.17;;;;;;;20.08;47.69;101764.56;5017514;28;20047;-87
2023/05/05 08:40:08;;;;;;;3.78;2.35;;;;;;;19.86;47.72;101714.47;5049953;28;20107;-85
2023/05/05 08:42:34;;;;;;;3.05;2.17;;;;;;;20.01;47.43;101750.19;5048599;28;20537;-86
2023/05/05 08:45:00;;;;;;;5.50;2.47;;;;;;;20.27;47.28;101759.69;5049388;28;20418;-86
2023/05/05 08:47:25;;;;;;;3.65;2.35;;;;;;;20.31;45.83;101749.78;5039903;28;20036;-85
2023/05/05 08:49:51;;;;;;;4.55;2.50;;;;;;;20.38;45.82;101740.50;5017163;28;20017;-85
2023/05/05 08:52:17;;;;;;;4.13;2.78;;;;;;;20.41;45.14;101749.94;5023608;28;20056;-86
2023/05/05 08:54:54;;;;;;;3.13;2.60;;;;;;;20.40;45.04;101748.28;5006187;28;20089;-93
2023/05/05 08:57:27;;;;;;;4.85;3.30;;;;;;;20.61;44.94;101757.25;5017565;28;20079;-87
2023/05/05 08:59:52;;;;;;;4.20;2.80;;;;;;;20.79;44.96;101750.63;5033401;28;20037;-91
2023/05/05 09:02:22;;;;;;;5.72;3.20;;;;;;;20.66;44.73;101738.53;5027991;28;20032;-90
2023/05/05 09:04:48;;;;;;;4.53;2.42;;;;;;;20.52;44.90;101721.13;5017219;28;20029;-85
2023/05/05 09:07:14;;;;;;;4.18;2.75;;;;;;;20.60;45.12;101753.78;5015801;28;20053;-88
2023/05/05 09:09:39;;;;;;;5.75;2.80;;;;;;;20.69;44.55;101733.88;5046184;28;20059;-89
2023/05/05 09:12:05;;;;;;;3.53;2.30;;;;;;;20.76;45.00;101750.88;4998889;28;20092;-89
2023/05/05 09:14:30;;;;;;;3.72;2.38;;;;;;;20.90;45.36;101737.53;5009765;28;20022;-88
2023/05/05 09:16:56;;;;;;;6.65;2.60;;;;;;;21.44;44.76;101736.97;5024968;28;20518;-92
2023/05/05 09:19:21;;;;;;;5.97;2.50;;;;;;;21.56;43.24;101750.13;5007077;28;20537;-87
2023/05/05 09:21:49;;;;;;;5.05;2.78;;;;;;;21.47;43.16;101725.34;5027687;28;20410;-88
2023/05/05 09:24:15;;;;;;;4.20;3.05;;;;;;;21.61;43.93;101738.28;5011633;28;20102;-89
2023/05/05 09:26:42;;;;;;;3.28;2.22;;;;;;;21.80;41.79;101737.66;5027068;28;20071;-85
2023/05/05 09:29:08;;;;;;;6.25;2.70;;;;;;;21.89;40.70;101736.94;5028249;28;20029;-84
2023/05/05 09:31:34;;;;;;;4.03;2.55;;;;;;;22.01;41.67;101743.03;5046388;28;20056;-86
2023/05/05 09:34:00;;;;;;;3.85;2.55;;;;;;;21.95;41.73;101725.94;5047309;28;20025;-90
2023/05/05 09:36:47;;;;;;;7.22;4.55;;;;;;;21.82;41.59;101741.00;5047349;28;20026;-86
2023/05/05 09:39:17;;;;;;;4.97;3.33;;;;;;;21.81;42.09;101728.81;5047646;28;20025;-89
2023/05/05 09:41:43;;;;;;;5.13;2.67;;;;;;;22.20;41.40;101742.44;5029590;28;20029;-88
2023/05/05 09:44:09;;;;;;;5.47;2.55;;;;;;;22.12;41.19;101724.59;5018424;28;20045;-90
2023/05/05 09:46:34;;;;;;;4.10;2.80;;;;;;;22.44;40.47;101732.56;5009087;28;20457;-87
2023/05/05 09:49:18;;;;;;;3.85;2.92;;;;;;;22.56;40.24;101730.72;5044595;28;20036;-90
2023/05/05 09:51:44;;;;;;;3.28;2.25;;;;;;;22.57;39.63;101722.66;5047726;28;20058;-89
2023/05/05 09:54:27;;;;;;;3.45;2.53;;;;;;;22.26;40.65;101691.88;5017727;28;20053;-88
2023/05/05 09:56:52;;;;;;;;;;;;;;;22.66;40.49;101734.25;5027016;28;20503;-87
2023/05/05 09:59:18;;;;;;;3.65;2.63;;;;;;;22.63;40.21;101726.63;5029543;28;19935;-89
2023/05/05 10:01:43;;;;;;;3.08;2.33;;;;;;;22.67;39.75;101728.03;5031208;28;20025;-89
2023/05/05 10:04:28;;;;;;;3.78;2.40;;;;;;;22.80;40.04;101727.84;5022705;28;20048;-89
2023/05/05 10:06:55;;;;;;;5.65;3.90;;;;;;;22.77;39.38;101707.81;5035556;28;20026;-85
2023/05/05 10:09:20;;;;;;;8.55;6.13;;;;;;;22.77;39.20;101707.00;5031960;28;20025;-86
2023/05/05 10:11:46;;;;;;;3.58;2.38;;;;;;;22.90;39.16;101723.50;5031387;28;20055;-86
2023/05/05 10:14:16;;;;;;;5.93;2.88;;;;;;;22.78;39.45;101706.84;5043831;28;20032;-86
2023/05/05 10:16:46;;;;;;;3.65;2.70;;;;;;;22.99;38.26;101717.44;5050484;28;20028;-86
2023/05/05 10:19:13;;;;;;;4.18;2.75;;;;;;;22.80;38.37;101681.19;5032052;28;20487;-90
2023/05/05 10:21:38;;;;;;;3.42;2.47;;;;;;;22.93;38.27;101685.47;5022212;28;20033;-89
2023/05/05 10:24:15;;;;;;;4.00;2.50;;;;;;;22.99;38.34;101711.34;5009230;28;20043;-86
2023/05/05 10:26:43;;;;;;;3.38;2.35;;;;;;;23.03;37.80;101692.50;5026605;28;20029;-86
2023/05/05 10:29:38;;;;;;;4.43;2.75;;;;;;;23.26;37.87;101708.16;5020335;28;20131;-89
2023/05/05 10:32:08;;;;;;;3.75;2.55;;;;;;;23.15;37.66;101688.78;5022917;28;20103;-87
2023/05/05 10:34:38;;;;;;;3.33;2.47;;;;;;;23.17;38.76;101707.97;5022802;28;20422;-93
2023/05/05 10:37:05;;;;;;;4.47;2.95;;;;;;;23.28;38.41;101711.50;5014970;28;20032;-85
2023/05/05 10:39:30;;;;;;;4.75;2.58;;;;;;;23.29;37.51;101702.59;5034903;28;20056;-83
2023/05/05 10:41:58;;;;;;;3.78;3.05;;;;;;;23.01;38.16;101667.16;5015453;28;20042;-86
2023/05/05 10:44:24;;;;;;;4.10;2.88;;;;;;;23.12;37.57;101693.50;5020808;28;20102;-85
2023/05/05 10:46:49;;;;;;;7.70;3.03;;;;;;;23.22;37.39;101681.19;5033620;28;20037;-84
2023/05/05 10:49:30;;;;;;;4.25;2.53;;;;;;;23.13;37.81;101672.25;5034221;28;20025;-85
2023/05/05 10:52:17;;;;;;;4.32;2.92;;;;;;;23.22;38.96;101696.22;5051808;28;20029;-84
2023/05/05 10:55:02;;;;;;;3.95;2.55;;;;;;;23.40;38.77;101686.69;5051881;28;20504;-84
2023/05/05 10:57:27;;;;;;;3.30;2.58;;;;;;;23.42;37.47;101684.75;5050397;28;20466;-86
2023/05/05 10:59:53;;;;;;;3.08;2.17;;;;;;;23.30;38.37;101656.75;5002155;28;20146;-85
2023/05/05 11:02:22;;;;;;;4.03;2.60;;;;;;;23.62;37.67;101689.19;5010642;28;20026;-86
2023/05/05 11:05:19;;;;;;;3.20;2.38;;;;;;;23.78;37.53;101687.81;5011707;28;20026;-85
2023/05/05 11:07:46;;;;;;;4.40;2.35;;;;;;;23.81;37.48;101666.44;5004041;28;20127;-84
2023/05/05 11:10:12;;;;;;;4.22;2.55;;;;;;;24.11;35.66;101682.19;5010950;28;20068;-84
2023/05/05 11:13:02;;;;;;;4.75;2.95;;;;;;;24.00;35.22;101687.63;4999847;28;20050;-86
2023/05/05 11:15:30;;;;;;;3.75;2.45;;;;;;;23.73;35.57;101670.56;5018204;28;20498;-86
2023/05/05 11:17:59;;;;;;;3.33;2.45;;;;;;;23.74;35.96;101669.59;5028338;28;20491;-88
2023/05/05 11:20:39;;;;;;;4.88;2.75;;;;;;;23.97;36.25;101678.13;5013671;28;20022;-85
2023/05/05 11:23:05;;;;;;;3.92;2.90;;;;;;;24.01;35.45;101679.53;5031534;28;20034;-85
2023/05/05 11:25:37;;;;;;;5.53;2.60;;;;;;;23.86;35.15;101658.91;5030499;28;20033;-86
2023/05/05 11:28:10;;;;;;;4.13;2.20;;;;;;;23.92;35.91;101674.25;5031210;28;20029;-86